Time;durP1;ratioP1;P1;durP2;ratioP2;P2;SDS_P1;SDS_P2;PMS_P1;PMS_P2;Temp;Humidity;BMP_temperature;BMP_pressure;BME280_temperature;BME280_humidity;BME280_pressure;Samples;Min_cycle;Max_cycle;Signal;HPM_P1;HPM_P2
2023/09/15 00:01:15;;;;;;;;;5.20;5.20;;;;;18.52;61.66;99554.25;5106349;28;8898;-73
2023/09/15 00:03:46;;;;;;;;;8.00;8.00;;;;;18.41;62.10;99559.28;5070033;28;8902;-71
2023/09/15 00:06:16;;;;;;;;;5.40;5.20;;;;;18.30;62.70;99568.69;5089898;28;8875;-71
2023/09/15 00:08:45;;;;;;;;;6.80;6.80;;;;;18.03;63.67;99556.81;5090938;28;8856;-72
2023/09/15 00:11:17;;;;;;;;;6.20;6.20;;;;;18.31;62.81;99569.56;5107194;28;8899;-73
2023/09/15 00:13:47;;;;;;;;;7.60;7.60;;;;;18.37;62.47;99571.88;5104790;28;8879;-73
2023/09/15 00:16:16;;;;;;;;;6.20;6.20;;;;;17.90;64.40;99565.41;5108882;28;8873;-73
2023/09/15 00:18:47;;;;;;;;;9.00;7.60;;;;;17.93;64.25;99564.38;5095400;28;8898;-75
2023/09/15 00:21:16;;;;;;;;;10.00;9.60;;;;;17.90;64.80;99578.69;5097856;28;8844;-73
2023/09/15 00:23:45;;;;;;;;;8.80;8.60;;;;;17.85;64.90;99579.88;5096085;28;8935;-78
2023/09/15 00:26:13;;;;;;;;;8.80;8.80;;;;;17.37;67.29;99579.59;5095706;28;8829;-74
2023/09/15 00:28:43;;;;;;;;;12.20;10.20;;;;;17.62;66.34;99573.91;5093600;28;8968;-78
2023/09/15 00:31:12;;;;;;;;;8.80;8.60;;;;;17.73;65.54;99582.22;5099451;27;8860;-77
2023/09/15 00:33:41;;;;;;;;;8.80;8.80;;;;;18.02;64.44;99576.34;5091664;28;8890;-75
2023/09/15 00:36:11;;;;;;;;;8.20;8.20;;;;;17.96;64.58;99580.19;5103277;28;8845;-79
2023/09/15 00:38:40;;;;;;;;;8.40;8.40;;;;;17.96;64.87;99585.50;5106422;28;8853;-80
2023/09/15 00:41:09;;;;;;;;;7.60;6.60;;;;;17.96;65.01;99588.16;5108898;28;9590;-78
2023/09/15 00:43:38;;;;;;;;;8.00;8.00;;;;;17.76;65.87;99581.22;5089680;28;9671;-79
2023/09/15 00:46:09;;;;;;;;;9.60;9.00;;;;;17.73;66.00;99581.34;5108345;28;8864;-80
2023/09/15 00:48:39;;;;;;;;;7.60;7.60;;;;;17.86;65.46;99586.94;5108513;28;8876;-79
2023/09/15 00:51:08;;;;;;;;;8.80;7.20;;;;;18.04;64.59;99585.16;5099113;28;8867;-80
2023/09/15 00:53:40;;;;;;;;;10.20;7.80;;;;;17.72;65.83;99587.59;5091342;28;8841;-71
2023/09/15 00:56:10;;;;;;;;;8.00;8.00;;;;;18.13;64.12;99584.66;5091480;28;9565;-74
2023/09/15 00:58:40;;;;;;;;;7.20;7.20;;;;;18.37;63.24;99589.66;5107340;28;8833;-74
2023/09/15 01:01:10;;;;;;;;;4.80;4.40;;;;;17.94;65.00;99596.22;5092800;27;8892;-75
2023/09/15 01:03:43;;;;;;;;;7.00;7.00;;;;;18.18;64.11;99595.09;5109006;28;8865;-76
2023/09/15 01:06:14;;;;;;;;;8.20;8.00;;;;;18.41;63.11;99593.88;5104906;28;8848;-78
2023/09/15 01:08:44;;;;;;;;;7.40;7.40;;;;;18.50;62.71;99593.41;5089516;28;8925;-77
2023/09/15 01:11:14;;;;;;;;;7.00;6.40;;;;;18.51;62.57;99597.75;5114874;28;8844;-75
2023/09/15 01:13:42;;;;;;;;;7.40;6.00;;;;;18.65;61.85;99592.56;5085753;28;9586;-76
2023/09/15 01:16:19;;;;;;;;;7.20;7.20;;;;;18.70;61.80;99598.50;5097987;28;8856;-76
2023/09/15 01:18:55;;;;;;;;;6.80;6.00;;;;;18.46;62.32;99598.03;5087522;28;8904;-76
2023/09/15 01:22:00;;;;;;;;;7.20;7.00;;;;;18.71;61.62;99600.22;5072567;28;8865;-76
2023/09/15 01:25:10;;;;;;;;;7.20;7.20;;;;;18.40;62.60;99605.44;5056417;28;8969;-77
2023/09/15 01:27:55;;;;;;;;;6.40;6.40;;;;;18.34;62.72;99611.97;5035580;28;8869;-77
2023/09/15 01:30:26;;;;;;;;;6.20;5.20;;;;;18.43;62.50;99602.66;5009410;28;8967;-77
2023/09/15 01:32:57;;;;;;;;;8.80;7.60;;;;;18.10;63.74;99611.41;5025025;28;8978;-76
2023/09/15 01:35:26;;;;;;;;;8.00;7.60;;;;;18.20;63.13;99610.03;5022167;28;8932;-77
2023/09/15 01:37:55;;;;;;;;;5.80;5.80;;;;;18.19;62.94;99610.94;4986572;28;8900;-77
2023/09/15 01:40:25;;;;;;;;;7.00;7.00;;;;;17.96;63.85;99604.97;4956700;28;8873;-76
2023/09/15 01:42:55;;;;;;;;;6.20;5.20;;;;;17.75;64.68;99611.38;4973077;28;8858;-78
2023/09/15 01:45:26;;;;;;;;;5.80;5.80;;;;;17.90;63.91;99604.44;4985706;28;8873;-76
2023/09/15 01:47:58;;;;;;;;;5.20;5.20;;;;;18.03;63.42;99617.97;4970061;28;8903;-76
2023/09/15 01:50:30;;;;;;;;;4.60;4.40;;;;;17.99;63.49;99619.94;4971876;28;8857;-77
2023/09/15 01:53:01;;;;;;;;;5.00;5.00;;;;;18.14;62.46;99629.81;4988864;28;8898;-77
2023/09/15 01:55:33;;;;;;;;;4.80;4.80;;;;;18.07;62.77;99624.91;4969545;28;8923;-76
2023/09/15 01:58:03;;;;;;;;;2.40;2.40;;;;;18.21;62.29;99621.53;4969824;28;8876;-76
2023/09/15 02:00:38;;;;;;;;;5.40;5.40;;;;;17.92;63.32;99627.34;4954090;28;8884;-78
2023/09/15 02:03:07;;;;;;;;;6.20;5.20;;;;;18.11;62.54;99621.13;5008916;28;8949;-75
2023/09/15 02:05:36;;;;;;;;;6.40;5.00;;;;;18.03;63.01;99633.94;5030846;28;8945;-77
2023/09/15 02:08:06;;;;;;;;;3.60;3.60;;;;;18.26;62.01;99631.00;5044018;28;8967;-76
2023/09/15 02:10:35;;;;;;;;;6.00;6.00;;;;;17.98;62.95;99632.34;5037158;28;8858;-75
2023/09/15 02:13:04;;;;;;;;;7.00;5.60;;;;;18.23;62.15;99636.47;5081445;28;8862;-79
2023/09/15 02:15:33;;;;;;;;;6.60;4.60;;;;;18.11;62.69;99637.94;5060242;28;8992;-77
2023/09/15 02:18:06;;;;;;;;;5.00;5.00;;;;;17.80;64.13;99633.28;5083639;28;8854;-77
2023/09/15 02:20:34;;;;;;;;;6.20;6.00;;;;;17.94;63.68;99625.47;5057606;28;8954;-78
2023/09/15 02:23:04;;;;;;;;;5.00;4.20;;;;;17.83;64.33;99633.13;5071503;28;8904;-75
2023/09/15 02:25:35;;;;;;;;;6.20;6.00;;;;;17.89;63.97;99630.19;5069962;28;10035;-77
2023/09/15 02:28:06;;;;;;;;;4.80;3.80;;;;;18.05;63.41;99626.78;5058696;28;8880;-75
2023/09/15 02:30:35;;;;;;;;;5.80;5.80;;;;;17.73;64.79;99632.72;5070925;28;8879;-75
2023/09/15 02:33:05;;;;;;;;;7.60;5.60;;;;;17.91;64.18;99638.06;5097740;28;8853;-74
2023/09/15 02:35:35;;;;;;;;;4.80;4.80;;;;;17.65;65.39;99645.53;5107237;28;8863;-81
2023/09/15 02:38:06;;;;;;;;;4.00;4.00;;;;;17.77;64.86;99639.59;5108699;28;8861;-83
2023/09/15 02:40:35;;;;;;;;;0.60;0.60;;;;;17.61;65.38;99646.63;5093353;28;8849;-84
2023/09/15 02:43:05;;;;;;;;;4.40;4.40;;;;;17.60;65.59;99649.34;5091140;28;8839;-84
2023/09/15 02:45:35;;;;;;;;;6.00;5.00;;;;;17.60;65.69;99649.34;5090587;28;8994;-85
2023/09/15 02:48:07;;;;;;;;;5.40;5.40;;;;;17.14;67.60;99660.34;5090030;28;8944;-82
2023/09/15 02:50:41;;;;;;;;;5.00;5.00;;;;;16.69;69.81;99662.34;5088307;28;8960;-76
2023/09/15 02:53:11;;;;;;;;;5.80;5.80;;;;;16.78;69.54;99653.97;5089136;28;9044;-75
2023/09/15 02:55:40;;;;;;;;;4.80;4.80;;;;;16.67;70.24;99664.22;5091244;28;8872;-81
2023/09/15 02:58:10;;;;;;;;;4.80;4.80;;;;;16.72;70.19;99664.88;5096349;28;8926;-80
2023/09/15 03:00:39;;;;;;;;;5.40;5.40;;;;;16.71;70.24;99657.84;5085277;28;8835;-82
2023/09/15 03:03:09;;;;;;;;;4.20;4.00;;;;;16.60;70.72;99657.44;5113351;28;8864;-79
2023/09/15 03:05:38;;;;;;;;;6.40;4.80;;;;;16.60;70.80;99657.44;5095971;28;8928;-79
2023/09/15 03:08:08;;;;;;;;;4.20;4.20;;;;;16.56;71.04;99654.06;5077743;28;8848;-81
2023/09/15 03:10:36;;;;;;;;;5.60;5.60;;;;;16.54;71.37;99652.41;5088867;28;9693;-81
2023/09/15 03:13:05;;;;;;;;;6.80;6.80;;;;;16.48;71.40;99656.22;5089546;28;8843;-79
2023/09/15 03:15:39;;;;;;;;;5.60;5.00;;;;;16.74;70.59;99659.50;5074170;28;8883;-82
2023/09/15 03:18:11;;;;;;;;;6.20;4.60;;;;;16.65;70.85;99652.81;5077481;28;8864;-81
2023/09/15 03:20:40;;;;;;;;;6.20;6.20;;;;;16.59;71.29;99653.09;5092911;28;8931;-79
2023/09/15 03:23:09;;;;;;;;;8.40;8.00;;;;;16.66;71.09;99651.00;5110826;28;8857;-82
2023/09/15 03:25:38;;;;;;;;;24.40;22.80;;;;;16.91;69.80;99656.94;5141421;27;8944;-81
2023/09/15 03:28:07;;;;;;;;;7.00;6.40;;;;;16.93;69.82;99656.88;5051946;28;8980;-80
2023/09/15 03:30:37;;;;;;;;;7.80;6.80;;;;;17.15;68.77;99652.28;5089722;28;8838;-79
2023/09/15 03:33:10;;;;;;;;;10.80;9.80;;;;;17.32;67.97;99645.34;5072871;28;9004;-80
2023/09/15 03:35:39;;;;;;;;;8.00;7.60;;;;;17.59;66.74;99648.50;5053543;28;8850;-82
2023/09/15 03:38:09;;;;;;;;;10.00;8.40;;;;;17.29;67.71;99648.19;5065954;28;8954;-79
2023/09/15 03:40:37;;;;;;;;;10.40;10.40;;;;;17.06;69.01;99657.16;5063660;28;8853;-77
2023/09/15 03:43:07;;;;;;;;;12.00;10.60;;;;;16.82;69.93;99656.50;5038555;28;8860;-78
2023/09/15 03:45:36;;;;;;;;;10.60;10.60;;;;;16.72;70.51;99664.88;5045266;28;8933;-77
2023/09/15 03:48:06;;;;;;;;;8.40;8.40;;;;;16.76;70.41;99658.50;5039571;28;8982;-77
2023/09/15 03:50:36;;;;;;;;;9.60;9.60;;;;;16.77;70.29;99652.25;5038075;28;8936;-81
2023/09/15 03:53:05;;;;;;;;;9.80;9.80;;;;;16.80;70.16;99656.56;5030393;28;8858;-76
2023/09/15 03:55:36;;;;;;;;;8.80;8.40;;;;;17.09;68.86;99657.03;4981750;28;8869;-77
2023/09/15 03:58:05;;;;;;;;;9.60;8.60;;;;;17.29;67.93;99658.81;5057715;28;9049;-81
2023/09/15 04:00:34;;;;;;;;;10.20;9.40;;;;;17.24;68.08;99661.63;5124274;27;8844;-79
2023/09/15 04:03:03;;;;;;;;;9.20;9.20;;;;;17.16;68.33;99654.03;5093689;28;8924;-78
2023/09/15 04:05:33;;;;;;;;;14.00;12.80;;;;;17.44;67.26;99659.84;5069876;28;8830;-80
2023/09/15 04:08:05;;;;;;;;;13.80;13.80;;;;;17.29;67.86;99661.47;5096949;28;9612;-80
2023/09/15 04:10:34;;;;;;;;;10.20;10.20;;;;;17.20;68.06;99662.72;5108888;28;9121;-78
2023/09/15 04:13:04;;;;;;;;;13.40;12.00;;;;;17.04;68.79;99662.56;5091160;28;8828;-78
2023/09/15 04:15:33;;;;;;;;;18.20;15.20;;;;;17.14;68.33;99663.84;5088321;28;8867;-76
2023/09/15 04:18:03;;;;;;;;;13.00;12.20;;;;;17.22;68.01;99667.97;5097838;28;8844;-78
2023/09/15 04:20:32;;;;;;;;;15.60;13.20;;;;;17.16;67.98;99667.31;5109999;28;8861;-78
2023/09/15 04:23:16;;;;;;;;;15.00;15.00;;;;;17.07;68.57;99672.19;5110884;28;9939;-80
2023/09/15 04:25:45;;;;;;;;;13.40;12.00;;;;;16.88;69.40;99675.66;5090610;28;8863;-78
2023/09/15 04:28:14;;;;;;;;;12.80;12.80;;;;;16.82;69.54;99675.09;5111393;28;9024;-79
2023/09/15 04:30:45;;;;;;;;;13.40;11.40;;;;;16.77;69.80;99677.94;5105094;28;8946;-78
2023/09/15 04:33:17;;;;;;;;;12.20;10.80;;;;;16.92;69.12;99685.22;5104824;28;9643;-79
2023/09/15 04:35:46;;;;;;;;;20.80;20.40;;;;;16.82;69.65;99680.41;5089097;28;8863;-78
2023/09/15 04:38:17;;;;;;;;;18.60;15.40;;;;;16.80;69.61;99685.78;5104483;28;8867;-78
2023/09/15 04:40:46;;;;;;;;;15.40;15.40;;;;;17.21;67.75;99680.34;5087696;28;8873;-78
2023/09/15 04:43:16;;;;;;;;;35.00;33.00;;;;;17.39;67.01;99686.66;5120632;27;8852;-79
2023/09/15 04:45:46;;;;;;;;;18.40;18.40;;;;;17.60;65.86;99691.88;5070458;28;8855;-79
2023/09/15 04:48:15;;;;;;;;;16.40;15.20;;;;;17.33;67.07;99693.13;5086883;28;8892;-77
2023/09/15 04:50:44;;;;;;;;;31.50;28.25;;;;;17.55;66.28;99686.78;5051129;28;8876;-78
2023/09/15 04:53:14;;;;;;;;;15.40;15.20;;;;;17.63;65.65;99692.59;5051896;28;8826;-78
2023/09/15 04:55:45;;;;;;;;;17.20;17.20;;;;;17.44;66.52;99694.41;5050019;28;8834;-79
2023/09/15 04:58:15;;;;;;;;;12.00;11.20;;;;;17.10;67.76;99694.16;5048848;28;9005;-82
2023/09/15 05:00:48;;;;;;;;;16.20;14.40;;;;;16.93;68.79;99699.38;5049070;28;8852;-79
2023/09/15 05:03:17;;;;;;;;;19.40;18.60;;;;;16.91;68.99;99702.09;5082551;28;8832;-81
2023/09/15 05:05:50;;;;;;;;;16.60;16.20;;;;;17.05;68.55;99696.16;5065246;28;8852;-80
2023/09/15 05:08:21;;;;;;;;;17.60;16.20;;;;;16.87;69.21;99707.59;5035096;28;8841;-78
2023/09/15 05:10:51;;;;;;;;;13.60;13.00;;;;;16.64;70.33;99712.13;5068994;28;9591;-81
2023/09/15 05:13:20;;;;;;;;;17.00;16.00;;;;;16.31;71.66;99709.97;5074860;28;9640;-78
2023/09/15 05:15:49;;;;;;;;;16.60;16.60;;;;;16.32;71.99;99710.81;5076514;28;8894;-79
2023/09/15 05:18:19;;;;;;;;;15.60;15.60;;;;;16.26;72.34;99706.63;5076711;28;9024;-80
2023/09/15 05:20:47;;;;;;;;;15.80;14.80;;;;;16.27;72.48;99711.03;5085462;28;8836;-76
2023/09/15 05:23:16;;;;;;;;;15.20;13.60;;;;;16.11;72.82;99710.78;5060971;28;8891;-78
2023/09/15 05:25:46;;;;;;;;;13.40;13.20;;;;;16.53;70.90;99711.72;5099150;28;8866;-80
2023/09/15 05:28:17;;;;;;;;;14.20;13.60;;;;;16.53;70.35;99711.72;5084808;28;8859;-79
2023/09/15 05:30:46;;;;;;;;;14.00;13.80;;;;;16.00;73.13;99720.97;5101154;28;8853;-80
2023/09/15 05:33:17;;;;;;;;;13.60;11.80;;;;;16.06;72.95;99722.50;5094619;28;8845;-80
2023/09/15 05:35:45;;;;;;;;;13.40;13.20;;;;;15.98;73.06;99722.81;5108887;28;8877;-79
2023/09/15 05:38:15;;;;;;;;;12.80;12.00;;;;;16.00;73.49;99726.25;5074806;28;9577;-78
2023/09/15 05:40:44;;;;;;;;;7.20;7.20;;;;;16.10;72.86;99726.78;5108266;28;9663;-77
2023/09/15 05:43:14;;;;;;;;;15.40;14.40;;;;;16.32;71.99;99716.13;5107270;28;8878;-77
2023/09/15 05:45:44;;;;;;;;;16.80;16.00;;;;;16.65;70.51;99728.94;5107475;28;8901;-75
2023/09/15 05:48:17;;;;;;;;;15.20;15.20;;;;;16.74;69.58;99724.06;5124378;27;8855;-78
2023/09/15 05:50:46;;;;;;;;;13.40;12.80;;;;;17.13;68.04;99725.00;5091277;28;8871;-78
2023/09/15 05:53:15;;;;;;;;;14.40;14.40;;;;;17.07;67.62;99723.50;5094361;28;8971;-75
2023/09/15 05:55:44;;;;;;;;;13.60;13.60;;;;;17.14;67.01;99718.78;5109128;28;8868;-81
2023/09/15 05:58:13;;;;;;;;;13.40;13.40;;;;;17.15;67.09;99717.84;5104422;28;8852;-82
2023/09/15 06:00:44;;;;;;;;;16.00;14.80;;;;;17.11;67.77;99711.78;5102941;28;8957;-80
2023/09/15 06:03:13;;;;;;;;;12.80;12.80;;;;;17.20;67.27;99718.50;5094646;28;8922;-79
2023/09/15 06:05:42;;;;;;;;;12.80;12.80;;;;;17.52;65.09;99724.16;5107013;28;8937;-83
2023/09/15 06:08:11;;;;;;;;;16.20;15.20;;;;;17.64;64.00;99718.25;5104372;28;8852;-81
2023/09/15 06:10:40;;;;;;;;;12.40;11.60;;;;;17.54;64.21;99723.13;5109594;28;9111;-81
2023/09/15 06:13:09;;;;;;;;;13.60;12.00;;;;;17.38;64.12;99725.66;5104446;28;8944;-81
2023/09/15 06:15:38;;;;;;;;;13.00;13.00;;;;;17.23;65.21;99725.44;5100240;28;8844;-81
2023/09/15 06:18:10;;;;;;;;;14.00;14.00;;;;;17.42;64.56;99729.03;5103169;28;9631;-82
2023/09/15 06:20:38;;;;;;;;;14.80;13.60;;;;;17.50;64.36;99728.69;5113599;28;8910;-82
2023/09/15 06:23:07;;;;;;;;;10.00;9.40;;;;;17.55;63.37;99735.50;5110525;28;8852;-80
2023/09/15 06:25:36;;;;;;;;;10.60;10.60;;;;;17.63;62.64;99734.25;5144483;27;8856;-82
2023/09/15 06:28:06;;;;;;;;;14.40;13.80;;;;;17.81;62.16;99733.38;5129558;27;8838;-81
2023/09/15 06:30:49;;;;;;;;;13.80;12.80;;;;;18.15;61.41;99732.63;5129747;27;8886;-80
2023/09/15 06:33:21;;;;;;;;;10.00;10.00;;;;;18.27;59.70;99725.84;5130541;27;8847;-82
2023/09/15 06:35:49;;;;;;;;;9.60;8.40;;;;;18.55;58.08;99721.78;5133329;27;8827;-82
2023/09/15 06:38:18;;;;;;;;;7.60;7.60;;;;;19.09;56.41;99729.66;5066848;27;8870;-80
2023/09/15 06:40:47;;;;;;;;;6.20;6.20;;;;;19.50;54.51;99735.41;5151370;27;8855;-80
2023/09/15 06:43:18;;;;;;;;;11.40;9.40;;;;;18.20;57.25;99728.91;5121072;27;8862;-78
2023/09/15 06:45:46;;;;;;;;;9.60;9.60;;;;;18.02;58.42;99739.47;5116870;27;8849;-80
2023/09/15 06:48:15;;;;;;;;;11.00;11.00;;;;;17.75;59.54;99733.69;5082600;27;8823;-76
2023/09/15 06:50:46;;;;;;;;;7.60;7.20;;;;;17.71;60.19;99734.78;5108688;28;8924;-80
2023/09/15 06:53:15;;;;;;;;;10.40;10.00;;;;;18.06;58.49;99735.78;5090930;28;8835;-79
2023/09/15 06:55:44;;;;;;;;;8.60;8.60;;;;;18.14;58.14;99730.91;5018081;28;8874;-81
2023/09/15 06:58:13;;;;;;;;;7.20;7.20;;;;;18.08;57.70;99728.56;5067350;28;8858;-81
2023/09/15 07:00:42;;;;;;;;;7.80;7.80;;;;;18.73;55.49;99727.97;5064587;28;8871;-81
2023/09/15 07:03:11;;;;;;;;;7.60;7.60;;;;;19.30;53.72;99727.63;5045145;28;9710;-80
2023/09/15 07:05:41;;;;;;;;;10.40;10.00;;;;;19.25;53.05;99721.69;5053400;28;8883;-82
2023/09/15 07:08:11;;;;;;;;;7.00;7.00;;;;;19.86;52.01;99726.31;5073395;28;9682;-79
2023/09/15 07:10:40;;;;;;;;;9.80;7.20;;;;;20.18;50.31;99725.41;5073039;28;8877;-79
2023/09/15 07:13:10;;;;;;;;;6.20;6.20;;;;;20.50;49.62;99723.56;5065788;28;8854;-82
2023/09/15 07:15:38;;;;;;;;;7.20;7.20;;;;;20.77;48.02;99730.88;5084936;28;8861;-81
2023/09/15 07:18:08;;;;;;;;;8.00;7.20;;;;;19.65;50.62;99730.19;5083556;28;8821;-82
2023/09/15 07:20:37;;;;;;;;;6.20;6.20;;;;;19.66;50.15;99727.44;5069388;28;8892;-81
2023/09/15 07:23:06;;;;;;;;;6.00;6.00;;;;;20.27;48.64;99720.44;5073911;28;8865;-80
2023/09/15 07:25:36;;;;;;;;;7.60;7.60;;;;;20.45;47.89;99720.31;5093343;28;8914;-79
2023/09/15 07:28:06;;;;;;;;;9.00;9.00;;;;;20.25;48.50;99719.66;5103995;28;8849;-76
2023/09/15 07:30:35;;;;;;;;;7.60;7.60;;;;;20.75;47.03;99732.78;5076399;28;8849;-76
2023/09/15 07:33:04;;;;;;;;;6.20;6.20;;;;;20.95;46.11;99736.91;5099252;28;9647;-77
2023/09/15 07:35:34;;;;;;;;;6.80;6.80;;;;;20.68;45.73;99732.28;5109178;28;8940;-76
2023/09/15 07:38:03;;;;;;;;;7.00;6.00;;;;;19.46;49.40;99725.88;5090321;28;8855;-77
2023/09/15 07:40:32;;;;;;;;;5.80;5.80;;;;;19.28;51.11;99727.72;5090904;28;8885;-74
2023/09/15 07:43:03;;;;;;;;;6.80;6.40;;;;;18.96;51.11;99726.78;5072728;28;8940;-75
2023/09/15 07:45:32;;;;;;;;;7.00;7.00;;;;;18.58;53.81;99726.94;5097269;28;8861;-75
2023/09/15 07:48:01;;;;;;;;;7.80;7.80;;;;;18.65;53.96;99719.53;5094723;28;8953;-74
2023/09/15 07:50:33;;;;;;;;;11.20;10.00;;;;;18.57;54.44;99727.88;5089804;28;9020;-72
2023/09/15 07:53:02;;;;;;;;;10.40;8.60;;;;;18.49;54.66;99736.25;5108891;28;8933;-69
2023/09/15 07:55:31;;;;;;;;;9.20;9.00;;;;;18.54;54.93;99736.03;5088282;28;9549;-72
2023/09/15 07:58:00;;;;;;;;;8.20;8.20;;;;;18.24;56.69;99731.31;5090789;28;8938;-77
2023/09/15 08:00:30;;;;;;;;;12.80;12.00;;;;;17.98;56.54;99728.09;5107410;28;8872;-75
2023/09/15 08:03:00;;;;;;;;;10.00;9.00;;;;;17.94;56.67;99738.97;5085903;28;8848;-78
2023/09/15 08:05:30;;;;;;;;;10.00;9.00;;;;;18.21;56.68;99719.97;5100493;28;8859;-75
2023/09/15 08:07:59;;;;;;;;;7.20;7.00;;;;;18.49;56.28;99733.59;5092083;27;8847;-75
2023/09/15 08:10:29;;;;;;;;;12.00;11.60;;;;;18.32;56.94;99737.09;5092480;28;8871;-75
2023/09/15 08:12:58;;;;;;;;;10.80;9.80;;;;;18.48;56.71;99731.03;5088674;28;8860;-76
2023/09/15 08:15:27;;;;;;;;;11.40;11.40;;;;;19.11;54.99;99728.63;5088738;28;8882;-75
2023/09/15 08:17:58;;;;;;;;;10.00;10.00;;;;;19.21;54.31;99736.13;5089165;28;8870;-80
2023/09/15 08:20:27;;;;;;;;;8.20;8.20;;;;;19.44;53.24;99733.09;5087453;28;8871;-74
2023/09/15 08:22:57;;;;;;;;;7.60;7.60;;;;;20.10;51.42;99731.19;5089013;28;8851;-73
2023/09/15 08:25:27;;;;;;;;;9.00;9.00;;;;;20.69;50.04;99734.00;5098405;28;8847;-73
2023/09/15 08:27:56;;;;;;;;;8.80;8.80;;;;;20.48;49.16;99726.31;5104172;28;8840;-77
2023/09/15 08:30:25;;;;;;;;;8.20;7.00;;;;;21.08;48.38;99715.66;5104046;28;8852;-74
2023/09/15 08:32:54;;;;;;;;;7.40;7.40;;;;;21.45;47.04;99715.03;5088642;28;8847;-77
2023/09/15 08:35:25;;;;;;;;;9.80;9.60;;;;;21.53;47.01;99722.56;5088373;28;8828;-76
2023/09/15 08:37:54;;;;;;;;;8.60;8.00;;;;;21.80;45.33;99724.47;5088914;28;8899;-79
2023/09/15 08:40:23;;;;;;;;;8.00;8.00;;;;;22.22;44.80;99731.50;5088754;28;8843;-75
2023/09/15 08:42:53;;;;;;;;;9.20;8.60;;;;;22.26;43.84;99724.16;5087525;28;8848;-77
2023/09/15 08:45:22;;;;;;;;;8.20;8.20;;;;;22.33;43.78;99727.25;5088228;28;8990;-74
2023/09/15 08:47:58;;;;;;;;;11.20;10.40;;;;;22.34;43.80;99726.31;5088564;28;8884;-74
2023/09/15 08:50:29;;;;;;;;;8.00;8.00;;;;;22.26;43.34;99715.22;5090089;28;8848;-74
2023/09/15 08:53:00;;;;;;;;;10.40;10.40;;;;;21.43;45.66;99729.47;5109129;28;8860;-76
2023/09/15 08:55:29;;;;;;;;;9.00;9.00;;;;;20.88;46.48;99736.41;5090571;28;8859;-76
2023/09/15 08:58:00;;;;;;;;;8.00;8.00;;;;;20.72;47.57;99731.13;5085950;28;8827;-71
2023/09/15 09:00:32;;;;;;;;;10.00;8.80;;;;;21.34;46.53;99722.88;5069167;28;8960;-72
2023/09/15 09:03:03;;;;;;;;;10.00;10.00;;;;;21.66;45.25;99720.00;5088495;28;8870;-70
2023/09/15 09:05:36;;;;;;;;;8.00;8.00;;;;;22.03;44.69;99726.50;5088427;28;8843;-73
2023/09/15 09:08:05;;;;;;;;;6.80;6.20;;;;;22.20;43.88;99727.19;5087912;28;8843;-73
2023/09/15 09:10:34;;;;;;;;;10.60;10.60;;;;;21.92;43.96;99726.34;5085764;28;8863;-71
2023/09/15 09:13:04;;;;;;;;;9.00;9.00;;;;;21.08;45.50;99731.69;5087417;28;8860;-72
2023/09/15 09:15:34;;;;;;;;;9.20;8.80;;;;;20.90;46.05;99730.97;5086763;28;8874;-76
2023/09/15 09:18:13;;;;;;;;;10.40;9.60;;;;;21.08;46.19;99729.00;5088400;28;8824;-77
2023/09/15 09:20:44;;;;;;;;;10.40;10.40;;;;;20.90;46.56;99722.94;5088107;28;8856;-72
2023/09/15 09:23:13;;;;;;;;;8.60;7.80;;;;;21.44;45.10;99724.00;5091131;28;8925;-71
2023/09/15 09:25:42;;;;;;;;;6.00;6.00;;;;;22.08;43.01;99725.34;5092422;28;8864;-72
2023/09/15 09:28:11;;;;;;;;;8.60;8.20;;;;;22.41;42.13;99722.22;5106404;28;8917;-71
2023/09/15 09:30:41;;;;;;;;;9.20;8.40;;;;;20.94;45.05;99735.22;5102601;28;8833;-76
2023/09/15 09:33:12;;;;;;;;;8.20;8.20;;;;;20.60;46.52;99737.22;5106956;28;8861;-70
2023/09/15 09:35:40;;;;;;;;;7.60;7.00;;;;;20.41;46.61;99737.47;5108135;28;8845;-72
2023/09/15 09:38:14;;;;;;;;;7.80;7.80;;;;;20.79;46.25;99728.97;5104716;28;8827;-75
2023/09/15 09:40:45;;;;;;;;;7.80;7.00;;;;;21.18;43.50;99738.16;5089856;28;8867;-75
2023/09/15 09:43:15;;;;;;;;;4.00;4.00;;;;;21.75;41.86;99727.44;5093228;28;8879;-74
2023/09/15 09:45:49;;;;;;;;;7.60;7.40;;;;;22.03;41.84;99720.25;5095723;28;9006;-74
2023/09/15 09:48:18;;;;;;;;;7.20;7.20;;;;;22.10;41.11;99721.59;5089067;28;8849;-73
2023/09/15 09:50:50;;;;;;;;;7.60;7.40;;;;;22.39;41.21;99721.47;5094580;28;8859;-74
2023/09/15 09:53:27;;;;;;;;;5.00;5.00;;;;;22.97;39.81;99717.50;5087494;28;9593;-73
2023/09/15 09:55:57;;;;;;;;;3.60;3.60;;;;;23.19;39.58;99716.84;5087461;28;8871;-74
2023/09/15 09:58:27;;;;;;;;;9.40;9.40;;;;;22.92;39.89;99721.47;5094084;28;8845;-75
2023/09/15 10:00:56;;;;;;;;;8.00;8.00;;;;;23.13;39.84;99719.97;5107465;28;8845;-75
2023/09/15 10:03:25;;;;;;;;;7.00;6.60;;;;;23.26;39.31;99719.97;5108750;28;8861;-73
2023/09/15 10:05:54;;;;;;;;;8.40;8.40;;;;;23.27;39.59;99726.16;5095345;27;9729;-75
2023/09/15 10:08:24;;;;;;;;;8.20;7.60;;;;;23.23;39.22;99717.47;5090916;28;8886;-75
2023/09/15 10:10:56;;;;;;;;;10.40;10.40;;;;;22.75;40.21;99726.16;5089736;27;8844;-76
2023/09/15 10:13:26;;;;;;;;;8.60;8.60;;;;;21.63;42.89;99734.47;5089036;28;8839;-76
2023/09/15 10:15:55;;;;;;;;;11.20;11.00;;;;;21.20;43.75;99736.25;5091050;28;8856;-77
2023/09/15 10:18:24;;;;;;;;;9.80;9.80;;;;;21.22;44.64;99732.56;5091713;28;9646;-74
2023/09/15 10:20:55;;;;;;;;;12.20;12.20;;;;;21.64;43.34;99725.44;5110832;28;8856;-75
2023/09/15 10:23:24;;;;;;;;;15.60;14.60;;;;;22.03;43.08;99720.25;5094303;28;8956;-76
2023/09/15 10:25:55;;;;;;;;;11.20;11.00;;;;;20.71;45.18;99734.78;5102078;28;9695;-79
2023/09/15 10:28:24;;;;;;;;;9.00;9.00;;;;;20.34;46.21;99728.94;5097820;28;8848;-78
2023/09/15 10:30:56;;;;;;;;;8.80;8.00;;;;;20.62;45.42;99721.97;5105177;28;8945;-77
2023/09/15 10:33:27;;;;;;;;;10.20;9.40;;;;;21.02;44.21;99720.41;5097684;28;8970;-77
2023/09/15 10:36:02;;;;;;;;;7.40;7.40;;;;;21.36;41.98;99720.97;5093302;28;8863;-75
2023/09/15 10:38:34;;;;;;;;;9.00;9.00;;;;;21.85;42.84;99706.28;5102156;27;8841;-74
2023/09/15 10:41:08;;;;;;;;;7.60;7.60;;;;;22.30;42.15;99704.22;5101842;27;8963;-75
2023/09/15 10:43:49;;;;;;;;;8.20;8.20;;;;;22.82;40.75;99702.44;5104466;27;9036;-74
2023/09/15 10:46:17;;;;;;;;;10.20;9.20;;;;;22.66;40.96;99713.38;5103718;27;8840;-75
2023/09/15 10:48:48;;;;;;;;;8.80;8.20;;;;;23.07;39.96;99707.00;5097615;27;8881;-77
2023/09/15 10:51:19;;;;;;;;;10.00;9.60;;;;;22.95;40.05;99702.50;5106661;27;8944;-77
2023/09/15 10:53:50;;;;;;;;;8.00;8.00;;;;;23.22;39.83;99705.03;5093104;27;8865;-77
2023/09/15 10:56:20;;;;;;;;;9.60;9.60;;;;;23.10;39.46;99708.59;5107805;27;8831;-77
2023/09/15 10:58:49;;;;;;;;;10.80;9.60;;;;;22.51;40.76;99707.25;5094946;28;8920;-73
2023/09/15 11:01:20;;;;;;;;;11.40;9.80;;;;;22.41;40.46;99707.03;5106663;28;8956;-74
2023/09/15 11:03:51;;;;;;;;;9.20;9.20;;;;;22.34;40.38;99711.09;5106953;28;8856;-77
2023/09/15 11:06:21;;;;;;;;;7.80;7.80;;;;;22.48;40.75;99709.28;5090216;28;8840;-76
2023/09/15 11:08:50;;;;;;;;;8.20;8.20;;;;;22.10;41.31;99710.88;5106956;28;8883;-77
2023/09/15 11:11:20;;;;;;;;;9.40;8.40;;;;;21.68;42.12;99709.22;5107120;28;8908;-78
2023/09/15 11:13:49;;;;;;;;;8.60;8.60;;;;;21.04;43.64;99720.31;5076456;28;8925;-77
2023/09/15 11:16:18;;;;;;;;;9.00;8.80;;;;;21.05;43.84;99714.88;5107465;28;8839;-79
2023/09/15 11:18:47;;;;;;;;;9.40;9.40;;;;;21.35;43.50;99711.25;5108093;28;8875;-78
2023/09/15 11:21:17;;;;;;;;;7.80;7.80;;;;;21.58;42.70;99698.22;5090621;28;8851;-78
2023/09/15 11:23:46;;;;;;;;;9.60;9.00;;;;;22.09;41.84;99695.78;5107113;28;8856;-78
2023/09/15 11:26:15;;;;;;;;;9.40;9.20;;;;;22.64;40.43;99693.88;5072335;28;8862;-79
2023/09/15 11:28:59;;;;;;;;;9.60;8.20;;;;;23.21;38.90;99697.13;5107615;28;9697;-78
2023/09/15 11:31:33;;;;;;;;;13.80;12.80;;;;;23.37;38.54;99685.19;5041543;28;8960;-78
2023/09/15 11:34:05;;;;;;;;;2.00;2.00;;;;;23.81;37.89;99693.66;5098453;28;8855;-77
2023/09/15 11:36:35;;;;;;;;;7.80;7.80;;;;;22.93;38.59;99691.88;5062694;28;8875;-75
2023/09/15 11:39:08;;;;;;;;;9.20;9.20;;;;;23.06;38.64;99681.16;5112238;28;8845;-73
2023/09/15 11:41:37;;;;;;;;;6.80;6.80;;;;;23.43;38.23;99683.88;5095181;28;8848;-76
2023/09/15 11:44:09;;;;;;;;;9.20;9.20;;;;;23.83;37.74;99680.09;5109458;28;8871;-75
2023/09/15 11:46:40;;;;;;;;;8.60;8.60;;;;;22.82;39.42;99675.66;5109158;28;8857;-79
2023/09/15 11:49:10;;;;;;;;;7.80;7.80;;;;;22.88;40.07;99674.38;5105402;28;8841;-76
2023/09/15 11:51:39;;;;;;;;;8.60;7.20;;;;;23.49;39.11;99670.00;5090283;28;9004;-77